sensor_id;sensor_type;location;lat;lon;timestamp;P1;durP1;ratioP1;P2;durP2;ratioP2
16662;SDS011;8445;51.270;9.434;2023-10-31T00:01:56;9.95;;;9.05;;
16662;SDS011;8445;51.270;9.434;2023-10-31T00:04:22;11.55;;;10.40;;
16662;SDS011;8445;51.270;9.434;2023-10-31T00:06:48;10.60;;;9.40;;
16662;SDS011;8445;51.270;9.434;2023-10-31T00:09:14;12.45;;;11.32;;
16662;SDS011;8445;51.270;9.434;2023-10-31T00:11:43;11.55;;;10.35;;
16662;SDS011;8445;51.270;9.434;2023-10-31T00:14:09;11.35;;;10.35;;
16662;SDS011;8445;51.270;9.434;2023-10-31T00:16:35;10.98;;;9.88;;
16662;SDS011;8445;51.270;9.434;2023-10-31T00:19:01;10.70;;;9.70;;
16662;SDS011;8445;51.270;9.434;2023-10-31T00:21:27;11.27;;;9.82;;
16662;SDS011;8445;51.270;9.434;2023-10-31T00:23:53;11.55;;;10.45;;
16662;SDS011;8445;51.270;9.434;2023-10-31T00:26:19;11.90;;;10.68;;
16662;SDS011;8445;51.270;9.434;2023-10-31T00:28:50;11.50;;;10.45;;
16662;SDS011;8445;51.270;9.434;2023-10-31T00:31:16;11.88;;;10.60;;
16662;SDS011;8445;51.270;9.434;2023-10-31T00:33:42;11.15;;;10.05;;
16662;SDS011;8445;51.270;9.434;2023-10-31T00:36:08;12.23;;;11.13;;
16662;SDS011;8445;51.270;9.434;2023-10-31T00:38:34;12.45;;;11.15;;
16662;SDS011;8445;51.270;9.434;2023-10-31T00:41:00;12.85;;;11.50;;
16662;SDS011;8445;51.270;9.434;2023-10-31T00:43:26;12.13;;;11.02;;
16662;SDS011;8445;51.270;9.434;2023-10-31T00:45:52;12.63;;;11.40;;
16662;SDS011;8445;51.270;9.434;2023-10-31T00:48:19;12.80;;;11.70;;
16662;SDS011;8445;51.270;9.434;2023-10-31T00:50:45;11.10;;;10.13;;
16662;SDS011;8445;51.270;9.434;2023-10-31T00:53:11;11.98;;;10.75;;
16662;SDS011;8445;51.270;9.434;2023-10-31T00:55:39;12.23;;;10.13;;
16662;SDS011;8445;51.270;9.434;2023-10-31T00:58:06;13.32;;;10.45;;
16662;SDS011;8445;51.270;9.434;2023-10-31T01:00:32;12.10;;;11.00;;
16662;SDS011;8445;51.270;9.434;2023-10-31T01:02:59;11.40;;;10.40;;
16662;SDS011;8445;51.270;9.434;2023-10-31T01:05:25;11.75;;;10.68;;
16662;SDS011;8445;51.270;9.434;2023-10-31T01:07:53;13.48;;;9.85;;
16662;SDS011;8445;51.270;9.434;2023-10-31T01:10:20;11.35;;;10.25;;
16662;SDS011;8445;51.270;9.434;2023-10-31T01:12:46;11.15;;;10.00;;
16662;SDS011;8445;51.270;9.434;2023-10-31T01:15:12;13.13;;;11.10;;
16662;SDS011;8445;51.270;9.434;2023-10-31T01:17:38;12.38;;;11.27;;
16662;SDS011;8445;51.270;9.434;2023-10-31T01:20:05;12.15;;;10.57;;
16662;SDS011;8445;51.270;9.434;2023-10-31T01:22:31;11.77;;;10.55;;
16662;SDS011;8445;51.270;9.434;2023-10-31T01:24:57;13.73;;;11.10;;
16662;SDS011;8445;51.270;9.434;2023-10-31T01:27:23;11.60;;;10.65;;
16662;SDS011;8445;51.270;9.434;2023-10-31T01:29:49;12.20;;;11.07;;
16662;SDS011;8445;51.270;9.434;2023-10-31T01:32:15;11.05;;;10.15;;
16662;SDS011;8445;51.270;9.434;2023-10-31T01:34:41;12.02;;;10.25;;
16662;SDS011;8445;51.270;9.434;2023-10-31T01:37:07;11.70;;;10.70;;
16662;SDS011;8445;51.270;9.434;2023-10-31T01:39:32;11.77;;;10.68;;
16662;SDS011;8445;51.270;9.434;2023-10-31T01:42:01;12.13;;;10.40;;
16662;SDS011;8445;51.270;9.434;2023-10-31T01:44:27;11.27;;;9.57;;
16662;SDS011;8445;51.270;9.434;2023-10-31T01:46:53;10.13;;;9.23;;
16662;SDS011;8445;51.270;9.434;2023-10-31T01:49:20;10.90;;;9.77;;
16662;SDS011;8445;51.270;9.434;2023-10-31T01:51:46;10.20;;;9.25;;
16662;SDS011;8445;51.270;9.434;2023-10-31T01:54:14;11.15;;;10.05;;
16662;SDS011;8445;51.270;9.434;2023-10-31T01:56:41;10.93;;;9.80;;
16662;SDS011;8445;51.270;9.434;2023-10-31T01:59:08;9.50;;;8.77;;
16662;SDS011;8445;51.270;9.434;2023-10-31T02:01:38;9.40;;;8.70;;
16662;SDS011;8445;51.270;9.434;2023-10-31T02:04:05;8.48;;;7.72;;
16662;SDS011;8445;51.270;9.434;2023-10-31T02:06:31;7.72;;;7.13;;
16662;SDS011;8445;51.270;9.434;2023-10-31T02:08:57;7.25;;;6.75;;
16662;SDS011;8445;51.270;9.434;2023-10-31T02:11:23;5.82;;;5.40;;
16662;SDS011;8445;51.270;9.434;2023-10-31T02:13:49;5.10;;;4.80;;
16662;SDS011;8445;51.270;9.434;2023-10-31T02:16:14;4.65;;;4.28;;
16662;SDS011;8445;51.270;9.434;2023-10-31T02:18:40;4.50;;;4.30;;
16662;SDS011;8445;51.270;9.434;2023-10-31T02:21:07;5.10;;;3.55;;
16662;SDS011;8445;51.270;9.434;2023-10-31T02:23:33;4.13;;;3.63;;
16662;SDS011;8445;51.270;9.434;2023-10-31T02:25:59;3.50;;;3.30;;
16662;SDS011;8445;51.270;9.434;2023-10-31T02:28:25;3.70;;;3.60;;
16662;SDS011;8445;51.270;9.434;2023-10-31T02:30:53;3.40;;;3.30;;
16662;SDS011;8445;51.270;9.434;2023-10-31T02:33:21;4.15;;;3.95;;
16662;SDS011;8445;51.270;9.434;2023-10-31T02:35:48;4.18;;;3.80;;
16662;SDS011;8445;51.270;9.434;2023-10-31T02:38:13;3.90;;;3.80;;
16662;SDS011;8445;51.270;9.434;2023-10-31T02:40:39;4.20;;;4.00;;
16662;SDS011;8445;51.270;9.434;2023-10-31T02:43:05;4.10;;;3.90;;
16662;SDS011;8445;51.270;9.434;2023-10-31T02:45:32;4.32;;;4.13;;
16662;SDS011;8445;51.270;9.434;2023-10-31T02:47:59;4.30;;;4.00;;
16662;SDS011;8445;51.270;9.434;2023-10-31T02:50:25;5.78;;;4.82;;
16662;SDS011;8445;51.270;9.434;2023-10-31T02:52:51;4.22;;;4.03;;
16662;SDS011;8445;51.270;9.434;2023-10-31T02:55:17;4.18;;;3.90;;
16662;SDS011;8445;51.270;9.434;2023-10-31T02:57:42;4.53;;;4.22;;
16662;SDS011;8445;51.270;9.434;2023-10-31T03:00:08;4.25;;;4.05;;
16662;SDS011;8445;51.270;9.434;2023-10-31T03:02:35;4.03;;;3.83;;
16662;SDS011;8445;51.270;9.434;2023-10-31T03:05:01;4.28;;;4.07;;
16662;SDS011;8445;51.270;9.434;2023-10-31T03:07:27;4.47;;;4.28;;
16662;SDS011;8445;51.270;9.434;2023-10-31T03:09:53;4.20;;;4.00;;
16662;SDS011;8445;51.270;9.434;2023-10-31T03:12:19;4.50;;;4.18;;
16662;SDS011;8445;51.270;9.434;2023-10-31T03:14:45;4.47;;;4.28;;
16662;SDS011;8445;51.270;9.434;2023-10-31T03:17:11;4.25;;;4.05;;
16662;SDS011;8445;51.270;9.434;2023-10-31T03:19:37;5.25;;;4.10;;
16662;SDS011;8445;51.270;9.434;2023-10-31T03:22:03;4.75;;;4.50;;
16662;SDS011;8445;51.270;9.434;2023-10-31T03:24:29;4.40;;;4.20;;
16662;SDS011;8445;51.270;9.434;2023-10-31T03:26:55;4.75;;;4.45;;
16662;SDS011;8445;51.270;9.434;2023-10-31T03:29:21;4.32;;;4.13;;
16662;SDS011;8445;51.270;9.434;2023-10-31T03:31:46;4.85;;;4.55;;
16662;SDS011;8445;51.270;9.434;2023-10-31T03:34:12;4.90;;;4.53;;
16662;SDS011;8445;51.270;9.434;2023-10-31T03:36:39;4.45;;;4.25;;
16662;SDS011;8445;51.270;9.434;2023-10-31T03:39:05;4.30;;;4.10;;
16662;SDS011;8445;51.270;9.434;2023-10-31T03:41:31;5.15;;;4.25;;
16662;SDS011;8445;51.270;9.434;2023-10-31T03:43:57;4.20;;;3.95;;
16662;SDS011;8445;51.270;9.434;2023-10-31T03:46:23;4.55;;;4.15;;
16662;SDS011;8445;51.270;9.434;2023-10-31T03:48:49;4.47;;;4.28;;
16662;SDS011;8445;51.270;9.434;2023-10-31T03:51:16;4.57;;;4.30;;
16662;SDS011;8445;51.270;9.434;2023-10-31T03:53:42;4.40;;;4.10;;
16662;SDS011;8445;51.270;9.434;2023-10-31T03:56:08;4.63;;;4.22;;
16662;SDS011;8445;51.270;9.434;2023-10-31T03:58:34;4.28;;;3.97;;
16662;SDS011;8445;51.270;9.434;2023-10-31T04:01:00;4.65;;;4.40;;
16662;SDS011;8445;51.270;9.434;2023-10-31T04:03:27;4.60;;;4.30;;
16662;SDS011;8445;51.270;9.434;2023-10-31T04:05:53;4.43;;;4.22;;
16662;SDS011;8445;51.270;9.434;2023-10-31T04:08:19;4.80;;;4.50;;
16662;SDS011;8445;51.270;9.434;2023-10-31T04:10:45;4.70;;;4.50;;
16662;SDS011;8445;51.270;9.434;2023-10-31T04:13:11;4.80;;;4.60;;
16662;SDS011;8445;51.270;9.434;2023-10-31T04:15:37;4.60;;;4.40;;
16662;SDS011;8445;51.270;9.434;2023-10-31T04:18:03;4.65;;;4.45;;
16662;SDS011;8445;51.270;9.434;2023-10-31T04:20:29;4.90;;;4.70;;
16662;SDS011;8445;51.270;9.434;2023-10-31T04:22:55;4.88;;;4.47;;
16662;SDS011;8445;51.270;9.434;2023-10-31T04:25:20;5.38;;;5.03;;
16662;SDS011;8445;51.270;9.434;2023-10-31T04:27:46;5.95;;;5.40;;
16662;SDS011;8445;51.270;9.434;2023-10-31T04:30:12;5.15;;;4.85;;
16662;SDS011;8445;51.270;9.434;2023-10-31T04:32:38;5.20;;;4.90;;
16662;SDS011;8445;51.270;9.434;2023-10-31T04:35:04;5.35;;;5.05;;
16662;SDS011;8445;51.270;9.434;2023-10-31T04:37:30;5.43;;;5.00;;
16662;SDS011;8445;51.270;9.434;2023-10-31T04:39:56;5.00;;;4.70;;
16662;SDS011;8445;51.270;9.434;2023-10-31T04:42:22;5.78;;;5.38;;
16662;SDS011;8445;51.270;9.434;2023-10-31T04:44:48;5.40;;;5.10;;
16662;SDS011;8445;51.270;9.434;2023-10-31T04:47:13;5.28;;;4.97;;
16662;SDS011;8445;51.270;9.434;2023-10-31T04:49:40;5.47;;;5.18;;
16662;SDS011;8445;51.270;9.434;2023-10-31T04:52:05;5.00;;;4.70;;
16662;SDS011;8445;51.270;9.434;2023-10-31T04:54:31;5.38;;;4.95;;
16662;SDS011;8445;51.270;9.434;2023-10-31T04:56:57;5.43;;;5.13;;
16662;SDS011;8445;51.270;9.434;2023-10-31T04:59:23;4.65;;;4.45;;
16662;SDS011;8445;51.270;9.434;2023-10-31T05:01:49;4.85;;;4.55;;
16662;SDS011;8445;51.270;9.434;2023-10-31T05:04:17;5.25;;;4.95;;
16662;SDS011;8445;51.270;9.434;2023-10-31T05:06:43;4.90;;;4.60;;
16662;SDS011;8445;51.270;9.434;2023-10-31T05:09:10;4.80;;;4.60;;
16662;SDS011;8445;51.270;9.434;2023-10-31T05:11:36;5.28;;;4.97;;
16662;SDS011;8445;51.270;9.434;2023-10-31T05:14:02;5.00;;;4.70;;
16662;SDS011;8445;51.270;9.434;2023-10-31T05:16:27;5.47;;;5.20;;
16662;SDS011;8445;51.270;9.434;2023-10-31T05:18:53;6.50;;;5.20;;
16662;SDS011;8445;51.270;9.434;2023-10-31T05:21:19;5.50;;;5.20;;
16662;SDS011;8445;51.270;9.434;2023-10-31T05:23:46;5.47;;;5.18;;
16662;SDS011;8445;51.270;9.434;2023-10-31T05:26:12;5.45;;;5.20;;
16662;SDS011;8445;51.270;9.434;2023-10-31T05:28:37;5.20;;;4.90;;
16662;SDS011;8445;51.270;9.434;2023-10-31T05:31:03;5.05;;;4.75;;
16662;SDS011;8445;51.270;9.434;2023-10-31T05:33:29;5.10;;;4.90;;
16662;SDS011;8445;51.270;9.434;2023-10-31T05:35:55;4.90;;;4.60;;
16662;SDS011;8445;51.270;9.434;2023-10-31T05:38:21;5.30;;;4.90;;
16662;SDS011;8445;51.270;9.434;2023-10-31T05:40:47;5.15;;;4.82;;
16662;SDS011;8445;51.270;9.434;2023-10-31T05:43:13;5.03;;;4.72;;
16662;SDS011;8445;51.270;9.434;2023-10-31T05:45:39;5.35;;;5.05;;
16662;SDS011;8445;51.270;9.434;2023-10-31T05:48:05;5.53;;;5.13;;
16662;SDS011;8445;51.270;9.434;2023-10-31T05:50:30;5.20;;;4.72;;
16662;SDS011;8445;51.270;9.434;2023-10-31T05:52:56;5.38;;;5.03;;
16662;SDS011;8445;51.270;9.434;2023-10-31T05:55:22;5.65;;;5.28;;
16662;SDS011;8445;51.270;9.434;2023-10-31T05:57:48;5.18;;;4.78;;
16662;SDS011;8445;51.270;9.434;2023-10-31T06:00:14;5.28;;;4.90;;
16662;SDS011;8445;51.270;9.434;2023-10-31T06:02:40;5.05;;;4.65;;
16662;SDS011;8445;51.270;9.434;2023-10-31T06:05:06;5.53;;;5.03;;
16662;SDS011;8445;51.270;9.434;2023-10-31T06:07:33;5.32;;;4.80;;
16662;SDS011;8445;51.270;9.434;2023-10-31T06:09:59;5.30;;;5.00;;
16662;SDS011;8445;51.270;9.434;2023-10-31T06:12:25;4.88;;;4.47;;
16662;SDS011;8445;51.270;9.434;2023-10-31T06:14:52;5.07;;;4.53;;
16662;SDS011;8445;51.270;9.434;2023-10-31T06:17:18;6.60;;;6.03;;
16662;SDS011;8445;51.270;9.434;2023-10-31T06:19:44;5.03;;;4.65;;
16662;SDS011;8445;51.270;9.434;2023-10-31T06:22:12;4.80;;;4.50;;
16662;SDS011;8445;51.270;9.434;2023-10-31T06:24:38;5.00;;;4.40;;
16662;SDS011;8445;51.270;9.434;2023-10-31T06:27:05;6.57;;;4.40;;
16662;SDS011;8445;51.270;9.434;2023-10-31T06:29:31;6.53;;;4.30;;
16662;SDS011;8445;51.270;9.434;2023-10-31T06:31:57;5.47;;;4.90;;
16662;SDS011;8445;51.270;9.434;2023-10-31T06:34:23;4.57;;;4.28;;
16662;SDS011;8445;51.270;9.434;2023-10-31T06:36:50;5.32;;;4.47;;
16662;SDS011;8445;51.270;9.434;2023-10-31T06:39:17;6.90;;;4.40;;
16662;SDS011;8445;51.270;9.434;2023-10-31T06:41:43;5.60;;;5.10;;
16662;SDS011;8445;51.270;9.434;2023-10-31T06:44:09;4.72;;;4.32;;
16662;SDS011;8445;51.270;9.434;2023-10-31T06:46:35;4.40;;;4.20;;
16662;SDS011;8445;51.270;9.434;2023-10-31T06:49:01;5.00;;;4.70;;
16662;SDS011;8445;51.270;9.434;2023-10-31T06:51:26;4.88;;;4.68;;
16662;SDS011;8445;51.270;9.434;2023-10-31T06:53:52;5.05;;;4.70;;
16662;SDS011;8445;51.270;9.434;2023-10-31T06:56:18;4.93;;;4.63;;
16662;SDS011;8445;51.270;9.434;2023-10-31T06:58:44;4.85;;;4.53;;
16662;SDS011;8445;51.270;9.434;2023-10-31T07:01:10;4.82;;;4.53;;
16662;SDS011;8445;51.270;9.434;2023-10-31T07:03:37;4.90;;;4.60;;
16662;SDS011;8445;51.270;9.434;2023-10-31T07:06:03;5.55;;;5.03;;
16662;SDS011;8445;51.270;9.434;2023-10-31T07:08:29;5.43;;;5.07;;
16662;SDS011;8445;51.270;9.434;2023-10-31T07:10:55;5.30;;;4.90;;
16662;SDS011;8445;51.270;9.434;2023-10-31T07:13:21;4.88;;;4.38;;
16662;SDS011;8445;51.270;9.434;2023-10-31T07:15:47;4.93;;;4.60;;
16662;SDS011;8445;51.270;9.434;2023-10-31T07:18:13;4.55;;;4.25;;
16662;SDS011;8445;51.270;9.434;2023-10-31T07:20:39;5.15;;;4.65;;
16662;SDS011;8445;51.270;9.434;2023-10-31T07:23:05;7.57;;;4.55;;
16662;SDS011;8445;51.270;9.434;2023-10-31T07:25:30;7.30;;;6.55;;
16662;SDS011;8445;51.270;9.434;2023-10-31T07:27:56;5.05;;;4.82;;
16662;SDS011;8445;51.270;9.434;2023-10-31T07:30:22;6.78;;;4.47;;
16662;SDS011;8445;51.270;9.434;2023-10-31T07:32:48;4.90;;;4.57;;
16662;SDS011;8445;51.270;9.434;2023-10-31T07:35:14;4.68;;;4.38;;
16662;SDS011;8445;51.270;9.434;2023-10-31T07:37:40;4.78;;;4.47;;
16662;SDS011;8445;51.270;9.434;2023-10-31T07:40:06;4.40;;;4.20;;
16662;SDS011;8445;51.270;9.434;2023-10-31T07:42:32;4.65;;;4.38;;
16662;SDS011;8445;51.270;9.434;2023-10-31T07:44:58;5.18;;;4.88;;
16662;SDS011;8445;51.270;9.434;2023-10-31T07:47:24;5.60;;;5.20;;
16662;SDS011;8445;51.270;9.434;2023-10-31T07:49:50;5.38;;;5.07;;
16662;SDS011;8445;51.270;9.434;2023-10-31T07:52:16;6.10;;;5.60;;
16662;SDS011;8445;51.270;9.434;2023-10-31T07:54:41;5.40;;;5.00;;
16662;SDS011;8445;51.270;9.434;2023-10-31T07:57:07;5.50;;;5.20;;
16662;SDS011;8445;51.270;9.434;2023-10-31T07:59:33;6.00;;;5.60;;
16662;SDS011;8445;51.270;9.434;2023-10-31T08:02:00;7.40;;;5.00;;
16662;SDS011;8445;51.270;9.434;2023-10-31T08:04:26;6.20;;;5.70;;
16662;SDS011;8445;51.270;9.434;2023-10-31T08:06:53;5.90;;;5.50;;
16662;SDS011;8445;51.270;9.434;2023-10-31T08:09:19;5.40;;;5.00;;
16662;SDS011;8445;51.270;9.434;2023-10-31T08:11:45;6.18;;;4.80;;
16662;SDS011;8445;51.270;9.434;2023-10-31T08:14:11;5.00;;;4.70;;
16662;SDS011;8445;51.270;9.434;2023-10-31T08:16:36;4.70;;;4.32;;
16662;SDS011;8445;51.270;9.434;2023-10-31T08:19:02;4.28;;;4.07;;
16662;SDS011;8445;51.270;9.434;2023-10-31T08:21:29;5.07;;;4.38;;
16662;SDS011;8445;51.270;9.434;2023-10-31T08:24:00;4.30;;;4.10;;
16662;SDS011;8445;51.270;9.434;2023-10-31T08:26:28;4.47;;;4.20;;
16662;SDS011;8445;51.270;9.434;2023-10-31T08:28:55;4.47;;;4.28;;
16662;SDS011;8445;51.270;9.434;2023-10-31T08:31:21;4.40;;;4.10;;
16662;SDS011;8445;51.270;9.434;2023-10-31T08:33:47;4.43;;;4.22;;
16662;SDS011;8445;51.270;9.434;2023-10-31T08:36:13;4.60;;;4.40;;
16662;SDS011;8445;51.270;9.434;2023-10-31T08:38:39;4.90;;;4.60;;
16662;SDS011;8445;51.270;9.434;2023-10-31T08:41:05;4.88;;;4.55;;
16662;SDS011;8445;51.270;9.434;2023-10-31T08:43:31;4.70;;;4.50;;
16662;SDS011;8445;51.270;9.434;2023-10-31T08:45:57;6.78;;;4.60;;
16662;SDS011;8445;51.270;9.434;2023-10-31T08:48:23;4.43;;;4.10;;
16662;SDS011;8445;51.270;9.434;2023-10-31T08:50:49;4.00;;;3.80;;
16662;SDS011;8445;51.270;9.434;2023-10-31T08:53:14;6.43;;;4.20;;
16662;SDS011;8445;51.270;9.434;2023-10-31T08:55:41;4.57;;;4.10;;
16662;SDS011;8445;51.270;9.434;2023-10-31T08:58:13;4.63;;;4.30;;
16662;SDS011;8445;51.270;9.434;2023-10-31T09:00:39;4.35;;;4.15;;
16662;SDS011;8445;51.270;9.434;2023-10-31T09:03:06;4.70;;;4.40;;
16662;SDS011;8445;51.270;9.434;2023-10-31T09:05:33;4.50;;;4.30;;
16662;SDS011;8445;51.270;9.434;2023-10-31T09:07:59;4.50;;;4.30;;
16662;SDS011;8445;51.270;9.434;2023-10-31T09:10:25;3.80;;;3.67;;
16662;SDS011;8445;51.270;9.434;2023-10-31T09:12:51;4.45;;;4.22;;
16662;SDS011;8445;51.270;9.434;2023-10-31T09:15:17;4.07;;;3.88;;
16662;SDS011;8445;51.270;9.434;2023-10-31T09:17:44;4.03;;;3.83;;
16662;SDS011;8445;51.270;9.434;2023-10-31T09:20:10;4.70;;;4.40;;
16662;SDS011;8445;51.270;9.434;2023-10-31T09:22:37;4.40;;;4.20;;
16662;SDS011;8445;51.270;9.434;2023-10-31T09:25:03;4.25;;;3.90;;
16662;SDS011;8445;51.270;9.434;2023-10-31T09:27:29;3.90;;;3.70;;
16662;SDS011;8445;51.270;9.434;2023-10-31T09:29:55;4.22;;;4.03;;
16662;SDS011;8445;51.270;9.434;2023-10-31T09:32:21;4.30;;;4.10;;
16662;SDS011;8445;51.270;9.434;2023-10-31T09:34:47;4.30;;;4.10;;
16662;SDS011;8445;51.270;9.434;2023-10-31T09:37:14;4.40;;;4.20;;
16662;SDS011;8445;51.270;9.434;2023-10-31T09:39:40;4.13;;;3.92;;
16662;SDS011;8445;51.270;9.434;2023-10-31T09:42:06;4.10;;;3.90;;
16662;SDS011;8445;51.270;9.434;2023-10-31T09:44:33;4.47;;;4.03;;
16662;SDS011;8445;51.270;9.434;2023-10-31T09:47:00;4.65;;;4.35;;
16662;SDS011;8445;51.270;9.434;2023-10-31T09:49:27;4.45;;;4.15;;
16662;SDS011;8445;51.270;9.434;2023-10-31T09:51:55;4.63;;;4.43;;
16662;SDS011;8445;51.270;9.434;2023-10-31T09:54:21;3.92;;;3.72;;
16662;SDS011;8445;51.270;9.434;2023-10-31T09:56:50;3.70;;;3.60;;
16662;SDS011;8445;51.270;9.434;2023-10-31T09:59:16;3.53;;;3.40;;
16662;SDS011;8445;51.270;9.434;2023-10-31T10:01:52;3.40;;;3.20;;
16662;SDS011;8445;51.270;9.434;2023-10-31T10:04:26;4.38;;;3.97;;
16662;SDS011;8445;51.270;9.434;2023-10-31T10:07:00;3.95;;;3.75;;
16662;SDS011;8445;51.270;9.434;2023-10-31T10:09:31;4.60;;;4.20;;
16662;SDS011;8445;51.270;9.434;2023-10-31T10:12:01;4.80;;;4.50;;
16662;SDS011;8445;51.270;9.434;2023-10-31T10:14:28;4.25;;;3.95;;
16662;SDS011;8445;51.270;9.434;2023-10-31T10:16:58;4.18;;;3.97;;
16662;SDS011;8445;51.270;9.434;2023-10-31T10:19:28;5.40;;;5.00;;
16662;SDS011;8445;51.270;9.434;2023-10-31T10:21:55;4.15;;;3.95;;
16662;SDS011;8445;51.270;9.434;2023-10-31T10:24:28;4.22;;;4.03;;
16662;SDS011;8445;51.270;9.434;2023-10-31T10:26:56;4.57;;;4.22;;
16662;SDS011;8445;51.270;9.434;2023-10-31T10:29:23;4.00;;;3.70;;
16662;SDS011;8445;51.270;9.434;2023-10-31T10:31:52;4.20;;;3.72;;
16662;SDS011;8445;51.270;9.434;2023-10-31T10:34:19;8.25;;;4.40;;
16662;SDS011;8445;51.270;9.434;2023-10-31T10:36:47;3.80;;;3.60;;
16662;SDS011;8445;51.270;9.434;2023-10-31T10:39:16;3.88;;;3.67;;
16662;SDS011;8445;51.270;9.434;2023-10-31T10:41:55;3.70;;;3.50;;
16662;SDS011;8445;51.270;9.434;2023-10-31T10:44:32;3.70;;;3.50;;
16662;SDS011;8445;51.270;9.434;2023-10-31T10:47:03;3.90;;;3.58;;
16662;SDS011;8445;51.270;9.434;2023-10-31T10:49:35;3.05;;;2.95;;
16662;SDS011;8445;51.270;9.434;2023-10-31T10:52:26;6.00;;;3.30;;
16662;SDS011;8445;51.270;9.434;2023-10-31T10:55:01;3.60;;;3.30;;
16662;SDS011;8445;51.270;9.434;2023-10-31T11:00:44;3.10;;;3.00;;
16662;SDS011;8445;51.270;9.434;2023-10-31T11:03:12;3.55;;;3.35;;
16662;SDS011;8445;51.270;9.434;2023-10-31T11:05:41;3.75;;;3.47;;
16662;SDS011;8445;51.270;9.434;2023-10-31T11:08:08;3.70;;;3.38;;
16662;SDS011;8445;51.270;9.434;2023-10-31T11:10:35;3.55;;;3.30;;
16662;SDS011;8445;51.270;9.434;2023-10-31T11:13:03;4.03;;;3.75;;
16662;SDS011;8445;51.270;9.434;2023-10-31T11:15:29;3.90;;;3.67;;
16662;SDS011;8445;51.270;9.434;2023-10-31T11:17:56;3.90;;;3.53;;
16662;SDS011;8445;51.270;9.434;2023-10-31T11:20:23;4.30;;;4.10;;
16662;SDS011;8445;51.270;9.434;2023-10-31T11:22:54;4.30;;;4.10;;
16662;SDS011;8445;51.270;9.434;2023-10-31T11:25:25;4.22;;;4.03;;
16662;SDS011;8445;51.270;9.434;2023-10-31T11:27:51;3.90;;;3.70;;
16662;SDS011;8445;51.270;9.434;2023-10-31T11:30:27;4.13;;;3.83;;
16662;SDS011;8445;51.270;9.434;2023-10-31T11:33:13;3.67;;;3.40;;
16662;SDS011;8445;51.270;9.434;2023-10-31T11:35:47;3.85;;;3.65;;
16662;SDS011;8445;51.270;9.434;2023-10-31T11:38:16;4.10;;;3.90;;
16662;SDS011;8445;51.270;9.434;2023-10-31T11:41:01;4.10;;;3.85;;
16662;SDS011;8445;51.270;9.434;2023-10-31T11:46:05;3.50;;;3.30;;
16662;SDS011;8445;51.270;9.434;2023-10-31T11:48:51;4.07;;;3.50;;
16662;SDS011;8445;51.270;9.434;2023-10-31T11:51:18;3.83;;;3.63;;
16662;SDS011;8445;51.270;9.434;2023-10-31T11:53:45;3.60;;;3.40;;
16662;SDS011;8445;51.270;9.434;2023-10-31T11:56:18;3.40;;;3.20;;
16662;SDS011;8445;51.270;9.434;2023-10-31T11:58:54;3.42;;;3.33;;
16662;SDS011;8445;51.270;9.434;2023-10-31T12:01:24;3.80;;;3.60;;
16662;SDS011;8445;51.270;9.434;2023-10-31T12:03:50;3.95;;;3.67;;
16662;SDS011;8445;51.270;9.434;2023-10-31T12:06:16;4.07;;;3.88;;
16662;SDS011;8445;51.270;9.434;2023-10-31T12:08:45;3.70;;;3.50;;
16662;SDS011;8445;51.270;9.434;2023-10-31T12:11:17;5.05;;;4.10;;
16662;SDS011;8445;51.270;9.434;2023-10-31T12:13:59;4.30;;;3.90;;
16662;SDS011;8445;51.270;9.434;2023-10-31T12:16:30;4.03;;;3.75;;
16662;SDS011;8445;51.270;9.434;2023-10-31T12:19:05;3.90;;;3.70;;
16662;SDS011;8445;51.270;9.434;2023-10-31T12:21:42;4.70;;;3.70;;
16662;SDS011;8445;51.270;9.434;2023-10-31T12:24:17;3.65;;;3.50;;
16662;SDS011;8445;51.270;9.434;2023-10-31T12:26:44;3.45;;;3.25;;
16662;SDS011;8445;51.270;9.434;2023-10-31T12:29:13;3.95;;;3.60;;
16662;SDS011;8445;51.270;9.434;2023-10-31T12:31:49;4.30;;;3.90;;
16662;SDS011;8445;51.270;9.434;2023-10-31T12:34:19;4.18;;;3.78;;
16662;SDS011;8445;51.270;9.434;2023-10-31T12:36:48;4.00;;;3.70;;
16662;SDS011;8445;51.270;9.434;2023-10-31T12:39:16;3.60;;;3.40;;
16662;SDS011;8445;51.270;9.434;2023-10-31T12:41:47;3.97;;;3.70;;
16662;SDS011;8445;51.270;9.434;2023-10-31T12:44:16;3.63;;;3.33;;
16662;SDS011;8445;51.270;9.434;2023-10-31T12:46:49;3.70;;;3.40;;
16662;SDS011;8445;51.270;9.434;2023-10-31T12:49:18;3.72;;;3.42;;
16662;SDS011;8445;51.270;9.434;2023-10-31T12:51:59;4.32;;;3.72;;
16662;SDS011;8445;51.270;9.434;2023-10-31T12:54:33;3.97;;;3.67;;
16662;SDS011;8445;51.270;9.434;2023-10-31T12:59:34;3.83;;;3.50;;
16662;SDS011;8445;51.270;9.434;2023-10-31T13:02:03;3.55;;;3.33;;
16662;SDS011;8445;51.270;9.434;2023-10-31T13:04:32;3.80;;;3.50;;
16662;SDS011;8445;51.270;9.434;2023-10-31T13:07:00;4.22;;;3.75;;
16662;SDS011;8445;51.270;9.434;2023-10-31T13:09:36;4.20;;;3.90;;
16662;SDS011;8445;51.270;9.434;2023-10-31T13:12:06;4.68;;;3.63;;
16662;SDS011;8445;51.270;9.434;2023-10-31T13:14:36;4.22;;;3.70;;
16662;SDS011;8445;51.270;9.434;2023-10-31T13:17:03;4.63;;;4.20;;
16662;SDS011;8445;51.270;9.434;2023-10-31T13:19:31;4.18;;;3.97;;
16662;SDS011;8445;51.270;9.434;2023-10-31T13:21:57;4.53;;;4.07;;
16662;SDS011;8445;51.270;9.434;2023-10-31T13:24:23;4.40;;;4.10;;
16662;SDS011;8445;51.270;9.434;2023-10-31T13:26:50;4.78;;;4.47;;
16662;SDS011;8445;51.270;9.434;2023-10-31T13:29:17;6.93;;;5.10;;
16662;SDS011;8445;51.270;9.434;2023-10-31T13:31:50;5.32;;;4.97;;
16662;SDS011;8445;51.270;9.434;2023-10-31T13:34:17;5.05;;;4.53;;
16662;SDS011;8445;51.270;9.434;2023-10-31T13:36:43;6.05;;;4.95;;
16662;SDS011;8445;51.270;9.434;2023-10-31T13:39:12;5.10;;;4.72;;
16662;SDS011;8445;51.270;9.434;2023-10-31T13:41:38;6.72;;;4.50;;
16662;SDS011;8445;51.270;9.434;2023-10-31T13:44:05;4.97;;;4.57;;
16662;SDS011;8445;51.270;9.434;2023-10-31T13:46:31;5.20;;;4.65;;
16662;SDS011;8445;51.270;9.434;2023-10-31T13:49:01;4.82;;;4.43;;
16662;SDS011;8445;51.270;9.434;2023-10-31T13:51:33;5.20;;;4.70;;
16662;SDS011;8445;51.270;9.434;2023-10-31T13:53:58;4.25;;;3.95;;
16662;SDS011;8445;51.270;9.434;2023-10-31T13:56:29;4.70;;;4.30;;
16662;SDS011;8445;51.270;9.434;2023-10-31T13:58:57;4.78;;;4.20;;
16662;SDS011;8445;51.270;9.434;2023-10-31T14:01:24;6.25;;;4.60;;
16662;SDS011;8445;51.270;9.434;2023-10-31T14:03:51;4.35;;;3.85;;
16662;SDS011;8445;51.270;9.434;2023-10-31T14:06:17;5.10;;;4.22;;
16662;SDS011;8445;51.270;9.434;2023-10-31T14:08:44;5.20;;;4.40;;
16662;SDS011;8445;51.270;9.434;2023-10-31T14:11:10;5.35;;;4.47;;
16662;SDS011;8445;51.270;9.434;2023-10-31T14:13:38;4.60;;;4.10;;
16662;SDS011;8445;51.270;9.434;2023-10-31T14:16:06;4.95;;;4.38;;
16662;SDS011;8445;51.270;9.434;2023-10-31T14:18:33;5.90;;;4.30;;
16662;SDS011;8445;51.270;9.434;2023-10-31T14:21:00;6.15;;;4.22;;
16662;SDS011;8445;51.270;9.434;2023-10-31T14:23:27;6.43;;;4.60;;
16662;SDS011;8445;51.270;9.434;2023-10-31T14:25:54;6.53;;;4.53;;
16662;SDS011;8445;51.270;9.434;2023-10-31T14:28:20;6.30;;;4.68;;
16662;SDS011;8445;51.270;9.434;2023-10-31T14:30:47;5.38;;;4.60;;
16662;SDS011;8445;51.270;9.434;2023-10-31T14:33:13;5.55;;;4.90;;
16662;SDS011;8445;51.270;9.434;2023-10-31T14:35:42;6.78;;;4.20;;
16662;SDS011;8445;51.270;9.434;2023-10-31T14:38:09;6.03;;;4.45;;
16662;SDS011;8445;51.270;9.434;2023-10-31T14:40:35;4.97;;;4.10;;
16662;SDS011;8445;51.270;9.434;2023-10-31T14:43:01;5.60;;;4.00;;
16662;SDS011;8445;51.270;9.434;2023-10-31T14:45:26;5.50;;;4.60;;
16662;SDS011;8445;51.270;9.434;2023-10-31T14:47:52;8.93;;;4.40;;
16662;SDS011;8445;51.270;9.434;2023-10-31T14:50:18;7.05;;;3.95;;
16662;SDS011;8445;51.270;9.434;2023-10-31T14:52:47;4.15;;;3.83;;
16662;SDS011;8445;51.270;9.434;2023-10-31T14:55:13;5.72;;;4.40;;
16662;SDS011;8445;51.270;9.434;2023-10-31T14:57:40;4.93;;;4.22;;
16662;SDS011;8445;51.270;9.434;2023-10-31T15:00:06;9.65;;;4.30;;
16662;SDS011;8445;51.270;9.434;2023-10-31T15:02:34;5.70;;;4.00;;
16662;SDS011;8445;51.270;9.434;2023-10-31T15:05:00;4.65;;;4.18;;
16662;SDS011;8445;51.270;9.434;2023-10-31T15:07:29;11.00;;;4.38;;